createdAt,value
2022-10-22T00:00:37.909Z,38.05
2022-10-22T00:03:25.142Z,39.47
2022-10-22T00:05:52.196Z,35.85
2022-10-22T00:08:19.616Z,38.13
2022-10-22T00:10:46.668Z,36.45
2022-10-22T00:13:14.609Z,37.78
2022-10-22T00:15:41.681Z,65.07
2022-10-22T00:18:08.942Z,37.20
2022-10-22T00:20:35.943Z,57.13
2022-10-22T00:23:03.486Z,42.75
2022-10-22T00:25:30.763Z,44.92
2022-10-22T00:27:58.019Z,47.63
2022-10-22T00:30:25.032Z,50.60
2022-10-22T00:32:52.239Z,50.80
2022-10-22T00:35:19.299Z,43.25
2022-10-22T00:37:46.458Z,36.88
2022-10-22T00:40:13.543Z,37.83
2022-10-22T00:42:41.187Z,47.83
2022-10-22T00:45:18.627Z,42.83
2022-10-22T00:48:05.467Z,40.78
2022-10-22T00:50:56.459Z,48.42
2022-10-22T00:53:29.821Z,50.80
2022-10-22T00:55:57.016Z,40.55
2022-10-22T00:58:28.095Z,54.53
2022-10-22T01:00:56.528Z,54.42
2022-10-22T01:03:23.818Z,49.08
2022-10-22T01:05:58.285Z,58.38
2022-10-22T01:08:52.119Z,43.03
2022-10-22T01:11:19.121Z,59.83
2022-10-22T01:13:51.842Z,56.40
2022-10-22T01:16:42.534Z,52.47
2022-10-22T01:19:18.491Z,50.38
2022-10-22T01:21:54.789Z,47.80
2022-10-22T01:24:42.275Z,39.25
2022-10-22T01:27:15.093Z,43.25
2022-10-22T01:29:57.678Z,34.97
2022-10-22T01:32:26.338Z,33.97
2022-10-22T01:35:16.833Z,41.35
2022-10-22T01:37:58.669Z,39.22
2022-10-22T01:40:27.305Z,56.15
2022-10-22T01:43:10.438Z,50.13
2022-10-22T01:45:51.293Z,46.10
2022-10-22T01:48:35.978Z,41.85
2022-10-22T01:51:28.120Z,40.75
2022-10-22T01:54:23.724Z,42.78
2022-10-22T01:59:39.254Z,39.35
2022-10-22T02:02:33.540Z,38.75
2022-10-22T02:05:25.273Z,41.85
2022-10-22T02:07:57.631Z,38.53
2022-10-22T02:10:25.981Z,42.75
2022-10-22T02:12:55.871Z,46.35
2022-10-22T02:15:25.832Z,40.92
2022-10-22T02:17:54.859Z,44.75
2022-10-22T02:20:29.399Z,40.33
2022-10-22T02:22:57.258Z,45.58
2022-10-22T02:25:27.762Z,50.55
2022-10-22T02:28:08.156Z,44.55
2022-10-22T02:30:37.304Z,64.88
2022-10-22T02:33:19.666Z,46.25
2022-10-22T02:35:48.180Z,55.80
2022-10-22T02:38:16.306Z,69.15
2022-10-22T02:40:43.402Z,63.65
2022-10-22T02:43:10.825Z,41.88
2022-10-22T02:45:38.009Z,53.35
2022-10-22T02:48:05.827Z,57.88
2022-10-22T02:50:32.875Z,79.78
2022-10-22T02:53:00.115Z,61.53
2022-10-22T02:55:27.069Z,68.63
2022-10-22T02:57:56.576Z,65.15
2022-10-22T03:00:23.542Z,77.20
2022-10-22T03:02:50.776Z,52.33
2022-10-22T03:05:17.789Z,60.17
2022-10-22T03:07:45.029Z,74.97
2022-10-22T03:10:12.183Z,70.90
2022-10-22T03:12:39.546Z,63.90
2022-10-22T03:15:06.850Z,52.40
2022-10-22T03:17:34.072Z,58.67
2022-10-22T03:20:01.074Z,76.28
2022-10-22T03:22:32.505Z,97.18
2022-10-22T03:25:03.204Z,135.88
2022-10-22T03:27:30.652Z,85.63
2022-10-22T03:29:58.794Z,53.40
2022-10-22T03:32:26.079Z,105.70
2022-10-22T03:34:53.109Z,67.18
2022-10-22T03:37:21.370Z,59.15
2022-10-22T03:39:48.450Z,64.35
2022-10-22T03:42:16.289Z,65.75
2022-10-22T03:44:43.757Z,56.67
2022-10-22T03:47:12.052Z,50.10
2022-10-22T03:49:39.063Z,65.57
2022-10-22T03:52:12.593Z,48.70
2022-10-22T03:54:40.584Z,42.50
2022-10-22T03:57:08.323Z,41.55
2022-10-22T03:59:39.852Z,47.50
2022-10-22T04:02:07.894Z,44.83
2022-10-22T04:04:35.467Z,38.97
2022-10-22T04:07:02.757Z,43.83
2022-10-22T04:09:33.754Z,38.15
2022-10-22T04:12:01.369Z,38.90
2022-10-22T04:14:28.435Z,47.15
2022-10-22T04:16:55.613Z,56.25
2022-10-22T04:19:22.610Z,34.90
2022-10-22T04:21:49.905Z,39.50
2022-10-22T04:24:16.900Z,41.28
2022-10-22T04:26:44.185Z,53.60
2022-10-22T04:29:15.117Z,81.30
2022-10-22T04:31:43.880Z,122.85
2022-10-22T04:34:11.018Z,112.38
2022-10-22T04:36:38.495Z,56.78
2022-10-22T04:39:06.222Z,38.47
2022-10-22T04:41:36.229Z,34.55
2022-10-22T04:44:04.524Z,29.50
2022-10-22T04:46:33.894Z,34.63
2022-10-22T04:49:03.346Z,26.45
2022-10-22T04:51:31.336Z,28.20
2022-10-22T04:53:58.826Z,36.92
2022-10-22T04:56:31.692Z,32.78
2022-10-22T04:59:03.946Z,114.85
2022-10-22T05:01:40.118Z,83.97
2022-10-22T05:04:14.109Z,82.28
2022-10-22T05:06:44.023Z,100.10
2022-10-22T05:09:14.736Z,93.15
2022-10-22T05:11:48.590Z,98.45
2022-10-22T05:14:24.532Z,58.85
2022-10-22T05:16:52.335Z,49.13
2022-10-22T05:19:24.158Z,46.42
2022-10-22T05:21:57.327Z,43.17
2022-10-22T05:24:25.586Z,41.28
2022-10-22T05:26:54.660Z,34.30
2022-10-22T05:29:22.469Z,31.77
2022-10-22T05:31:50.107Z,29.23
2022-10-22T05:34:17.522Z,32.83
2022-10-22T05:36:44.965Z,34.38
2022-10-22T05:39:12.432Z,34.72
2022-10-22T05:41:39.747Z,42.13
2022-10-22T05:44:06.851Z,40.05
2022-10-22T05:46:36.116Z,31.15
2022-10-22T05:49:06.122Z,27.85
2022-10-22T05:51:35.442Z,37.78
2022-10-22T05:54:06.204Z,28.38
2022-10-22T05:56:34.487Z,36.33
2022-10-22T06:01:35.586Z,28.83
2022-10-22T06:04:05.491Z,30.40
2022-10-22T06:06:42.876Z,45.92
2022-10-22T06:09:31.664Z,29.77
2022-10-22T06:11:59.666Z,29.67
2022-10-22T06:14:27.518Z,53.42
2022-10-22T06:16:55.236Z,41.00
2022-10-22T06:19:26.785Z,37.20
2022-10-22T06:21:54.308Z,45.67
2022-10-22T06:24:21.314Z,40.83
2022-10-22T06:26:53.167Z,50.70
2022-10-22T06:29:20.221Z,45.55
2022-10-22T06:31:47.653Z,45.40
2022-10-22T06:34:15.796Z,51.60
2022-10-22T06:36:44.747Z,48.60
2022-10-22T06:39:13.603Z,50.05
2022-10-22T06:41:41.351Z,62.58
2022-10-22T06:44:16.990Z,68.72
2022-10-22T06:46:44.637Z,58.55
2022-10-22T06:49:15.596Z,54.10
2022-10-22T06:51:42.903Z,62.90
2022-10-22T06:54:10.287Z,55.88
2022-10-22T06:56:37.605Z,80.78
2022-10-22T06:59:04.615Z,60.75
2022-10-22T07:01:36.553Z,168.30
2022-10-22T07:04:07.604Z,93.85
2022-10-22T07:06:35.198Z,82.47
2022-10-22T07:09:02.469Z,73.05
2022-10-22T07:11:42.930Z,60.63
2022-10-22T07:14:11.462Z,54.17
2022-10-22T07:16:39.307Z,53.28
2022-10-22T07:19:06.733Z,59.20
2022-10-22T07:21:33.937Z,59.10
2022-10-22T07:24:01.332Z,55.10
2022-10-22T07:26:31.027Z,61.42
2022-10-22T07:29:00.042Z,55.15
2022-10-22T07:31:28.123Z,58.95
2022-10-22T07:33:55.283Z,59.50
2022-10-22T07:36:22.591Z,62.92
2022-10-22T07:38:55.537Z,74.30
2022-10-22T07:41:23.813Z,99.72
2022-10-22T07:43:51.232Z,94.65
2022-10-22T07:46:19.046Z,80.05
2022-10-22T07:48:46.102Z,81.32
2022-10-22T07:51:13.541Z,91.00
2022-10-22T07:53:40.545Z,86.78
2022-10-22T07:56:08.166Z,88.38
2022-10-22T07:58:35.578Z,84.80
2022-10-22T08:01:06.010Z,96.82
2022-10-22T08:03:34.133Z,105.90
2022-10-22T08:06:02.245Z,93.82
2022-10-22T08:08:33.120Z,104.32
2022-10-22T08:11:01.687Z,126.55
2022-10-22T08:13:30.718Z,117.50
2022-10-22T08:16:01.845Z,211.25
2022-10-22T08:18:29.667Z,92.32
2022-10-22T08:20:57.554Z,131.65
2022-10-22T08:23:28.313Z,101.68
2022-10-22T08:25:57.220Z,131.00
2022-10-22T08:28:24.615Z,129.50
2022-10-22T08:30:52.102Z,130.20
2022-10-22T08:33:19.155Z,109.95
2022-10-22T08:35:51.055Z,88.53
2022-10-22T08:38:19.279Z,103.40
2022-10-22T08:40:53.795Z,85.15
2022-10-22T08:43:32.943Z,77.90
2022-10-22T08:46:10.672Z,70.85
2022-10-22T08:48:50.663Z,60.33
2022-10-22T08:51:24.861Z,56.53
2022-10-22T08:54:17.417Z,55.22
2022-10-22T08:56:50.950Z,58.20
2022-10-22T08:59:39.245Z,52.15
2022-10-22T09:02:22.897Z,57.92
2022-10-22T09:05:02.335Z,59.58
2022-10-22T09:07:29.760Z,56.60
2022-10-22T09:09:59.748Z,48.45
2022-10-22T09:12:28.075Z,46.75
2022-10-22T09:14:55.423Z,51.95
2022-10-22T09:17:36.734Z,69.03
2022-10-22T09:20:16.363Z,46.92
2022-10-22T09:22:52.717Z,48.83
2022-10-22T09:25:32.746Z,55.80
2022-10-22T09:28:00.416Z,47.85
2022-10-22T09:30:34.251Z,49.00
2022-10-22T09:33:06.021Z,50.88
2022-10-22T09:35:48.336Z,56.40
2022-10-22T09:38:19.248Z,54.50
2022-10-22T09:40:50.373Z,49.78
2022-10-22T09:43:18.647Z,64.38
2022-10-22T09:45:46.752Z,51.53
2022-10-22T09:48:26.383Z,50.72
2022-10-22T09:51:05.615Z,44.05
2022-10-22T09:53:41.881Z,50.47
2022-10-22T09:56:28.883Z,56.97
2022-10-22T09:58:57.881Z,52.95
2022-10-22T10:01:31.743Z,51.25
2022-10-22T10:04:09.773Z,51.35
2022-10-22T10:06:40.244Z,57.45
2022-10-22T10:09:18.319Z,68.80
2022-10-22T10:12:15.952Z,67.78
2022-10-22T10:15:08.060Z,62.95
2022-10-22T10:18:00.626Z,78.07
2022-10-22T10:20:51.377Z,64.43
2022-10-22T10:23:35.132Z,103.85
2022-10-22T10:26:14.359Z,231.38
2022-10-22T10:29:11.237Z,179.48
2022-10-22T10:32:00.357Z,158.52
2022-10-22T10:34:46.324Z,73.90
2022-10-22T10:37:26.312Z,152.90
2022-10-22T10:39:56.479Z,161.65
2022-10-22T10:43:12.060Z,190.82
2022-10-22T10:46:08.091Z,100.68
2022-10-22T10:48:58.496Z,72.97
2022-10-22T10:51:31.695Z,81.97
2022-10-22T10:53:58.850Z,149.65
2022-10-22T10:56:54.359Z,93.07
2022-10-22T11:02:40.366Z,75.35
2022-10-22T11:05:24.744Z,73.70
2022-10-22T11:08:10.882Z,78.88
2022-10-22T11:10:48.852Z,74.70
2022-10-22T11:13:22.466Z,83.95
2022-10-22T11:16:19.904Z,80.07
2022-10-22T11:18:55.530Z,65.88
2022-10-22T11:21:29.737Z,91.07
2022-10-22T11:24:08.352Z,79.95
2022-10-22T11:26:49.286Z,88.45
2022-10-22T11:29:22.965Z,86.13
2022-10-22T11:31:54.659Z,81.15
2022-10-22T11:34:39.644Z,68.72
2022-10-22T11:37:08.338Z,75.28
2022-10-22T11:39:39.298Z,84.85
2022-10-22T11:42:11.565Z,84.28
2022-10-22T11:45:01.740Z,78.90
2022-10-22T11:47:34.246Z,75.32
2022-10-22T11:50:21.724Z,74.88
2022-10-22T11:53:18.835Z,71.43
2022-10-22T11:55:55.346Z,62.92
2022-10-22T11:58:28.762Z,77.78
2022-10-22T12:01:01.878Z,103.95
2022-10-22T12:03:32.056Z,97.72
2022-10-22T12:06:15.711Z,89.60
2022-10-22T12:08:51.012Z,77.45
2022-10-22T12:14:03.771Z,64.90
2022-10-22T12:16:55.629Z,68.72
2022-10-22T12:19:24.793Z,67.18
2022-10-22T12:22:02.076Z,86.00
2022-10-22T12:24:32.946Z,75.22
2022-10-22T12:26:59.995Z,59.80
2022-10-22T12:29:28.588Z,111.57
2022-10-22T12:31:56.821Z,104.53
2022-10-22T12:34:25.554Z,84.55
2022-10-22T12:36:54.097Z,68.50
2022-10-22T12:39:26.111Z,62.25
2022-10-22T12:41:55.170Z,58.58
2022-10-22T12:44:22.354Z,65.32
2022-10-22T12:46:53.012Z,72.50
2022-10-22T12:49:30.659Z,98.70
2022-10-22T12:52:04.145Z,116.93
2022-10-22T12:54:33.618Z,100.32
2022-10-22T12:57:01.064Z,98.47
2022-10-22T12:59:34.746Z,86.32
2022-10-22T13:02:02.736Z,92.63
2022-10-22T13:04:35.558Z,88.25
2022-10-22T13:07:18.319Z,77.80
2022-10-22T13:09:58.597Z,75.20
2022-10-22T13:12:27.832Z,71.28
2022-10-22T13:14:55.270Z,64.35
2022-10-22T13:17:40.227Z,58.22
2022-10-22T13:20:21.721Z,82.15
2022-10-22T13:22:54.922Z,129.57
2022-10-22T13:25:33.965Z,95.90
2022-10-22T13:31:53.322Z,56.10
2022-10-22T13:34:25.661Z,70.72
2022-10-22T13:36:53.385Z,101.55
2022-10-22T13:39:22.932Z,96.18
2022-10-22T13:41:51.053Z,69.22
2022-10-22T13:44:19.690Z,77.38
2022-10-22T13:46:48.593Z,76.10
2022-10-22T13:49:18.198Z,68.45
2022-10-22T13:51:46.473Z,54.35
2022-10-22T13:54:20.057Z,62.13
2022-10-22T13:56:47.323Z,61.53
2022-10-22T13:59:16.253Z,57.28
2022-10-22T14:01:46.331Z,53.33
2022-10-22T14:04:15.114Z,54.03
2022-10-22T14:06:42.527Z,63.58
2022-10-22T14:09:15.723Z,74.78
2022-10-22T14:11:43.185Z,61.38
2022-10-22T14:14:14.374Z,47.45
2022-10-22T14:16:41.776Z,50.35
2022-10-22T14:19:16.421Z,51.38
2022-10-22T14:21:44.100Z,61.80
2022-10-22T14:24:14.170Z,56.40
2022-10-22T14:26:41.497Z,77.40
2022-10-22T14:29:11.812Z,61.65
2022-10-22T14:31:44.565Z,55.08
2022-10-22T14:34:14.690Z,66.60
2022-10-22T14:36:45.151Z,75.72
2022-10-22T14:39:13.321Z,72.97
2022-10-22T14:41:41.048Z,71.45
2022-10-22T14:44:14.312Z,67.07
2022-10-22T14:46:44.162Z,65.38
2022-10-22T14:49:11.635Z,66.32
2022-10-22T14:51:38.897Z,63.75
2022-10-22T14:54:05.992Z,69.68
2022-10-22T14:56:33.311Z,62.45
2022-10-22T14:59:00.372Z,77.32
2022-10-22T15:01:27.648Z,148.68
2022-10-22T15:03:54.672Z,142.55
2022-10-22T15:06:21.895Z,97.28
2022-10-22T15:08:49.059Z,99.60
2022-10-22T15:11:16.452Z,116.85
2022-10-22T15:13:43.754Z,98.80
2022-10-22T15:16:14.198Z,68.72
2022-10-22T15:18:41.429Z,82.75
2022-10-22T15:21:15.921Z,113.93
2022-10-22T15:23:43.180Z,105.78
2022-10-22T15:26:12.237Z,90.50
2022-10-22T15:28:40.700Z,96.13
2022-10-22T15:31:08.568Z,89.07
2022-10-22T15:33:35.558Z,105.95
2022-10-22T15:36:14.569Z,150.82
2022-10-22T15:38:42.166Z,135.93
2022-10-22T15:41:12.667Z,103.95
2022-10-22T15:43:39.714Z,84.32
2022-10-22T15:46:18.053Z,100.18
2022-10-22T15:48:45.813Z,89.95
2022-10-22T15:51:18.413Z,117.45
2022-10-22T15:53:51.683Z,102.32
2022-10-22T15:56:19.022Z,95.72
2022-10-22T15:58:46.026Z,81.85
2022-10-22T16:01:14.470Z,83.03
2022-10-22T16:03:42.171Z,83.43
2022-10-22T16:06:09.990Z,77.10
2022-10-22T16:08:37.918Z,94.18
2022-10-22T16:11:05.428Z,68.68
2022-10-22T16:13:32.491Z,100.28
2022-10-22T16:16:04.744Z,99.00
2022-10-22T16:18:31.804Z,94.65
2022-10-22T16:20:59.115Z,76.75
2022-10-22T16:23:26.281Z,78.15
2022-10-22T16:25:53.616Z,73.88
2022-10-22T16:28:20.807Z,78.43
2022-10-22T16:30:48.744Z,70.35
2022-10-22T16:33:15.840Z,81.72
2022-10-22T16:35:43.295Z,89.22
2022-10-22T16:38:12.197Z,80.60
2022-10-22T16:40:39.651Z,91.90
2022-10-22T16:43:06.778Z,75.95
2022-10-22T16:45:34.123Z,76.53
2022-10-22T16:48:01.371Z,98.22
2022-10-22T16:50:29.047Z,86.55
2022-10-22T16:52:56.453Z,87.22
2022-10-22T16:55:23.734Z,76.85
2022-10-22T16:57:52.310Z,79.53
2022-10-22T17:00:21.060Z,78.88
2022-10-22T17:02:53.393Z,111.15
2022-10-22T17:05:24.052Z,77.68
2022-10-22T17:07:51.200Z,79.82
2022-10-22T17:10:20.077Z,86.72
2022-10-22T17:12:47.989Z,74.70
2022-10-22T17:15:15.949Z,66.32
2022-10-22T17:17:43.190Z,81.53
2022-10-22T17:20:11.701Z,87.68
2022-10-22T17:22:38.940Z,83.90
2022-10-22T17:25:43.253Z,112.72
2022-10-22T17:28:11.672Z,92.28
2022-10-22T17:30:40.762Z,132.90
2022-10-22T17:33:08.705Z,108.45
2022-10-22T17:35:42.939Z,91.13
2022-10-22T17:38:10.258Z,87.57
2022-10-22T17:40:39.073Z,98.40
2022-10-22T17:43:06.223Z,127.90
2022-10-22T17:45:34.796Z,87.20
2022-10-22T17:48:01.894Z,91.47
2022-10-22T17:50:29.192Z,105.82
2022-10-22T17:52:56.426Z,133.02
2022-10-22T17:55:23.675Z,137.18
2022-10-22T17:57:50.899Z,125.68
2022-10-22T18:02:51.686Z,99.45
2022-10-22T18:05:18.986Z,103.15
2022-10-22T18:07:46.076Z,100.63
2022-10-22T18:10:13.383Z,92.22
2022-10-22T18:12:40.669Z,93.20
2022-10-22T18:15:08.647Z,87.85
2022-10-22T18:17:39.594Z,83.57
2022-10-22T18:20:07.956Z,104.35
2022-10-22T18:22:36.007Z,77.22
2022-10-22T18:25:03.479Z,76.40
2022-10-22T18:27:31.589Z,82.53
2022-10-22T18:29:58.847Z,105.20
2022-10-22T18:32:25.889Z,77.28
2022-10-22T18:34:53.232Z,76.03
2022-10-22T18:37:20.412Z,74.05
2022-10-22T18:39:49.302Z,88.35
2022-10-22T18:42:16.613Z,93.72
2022-10-22T18:44:44.037Z,127.20
2022-10-22T18:47:12.038Z,114.75
2022-10-22T18:49:40.178Z,83.53
2022-10-22T18:52:07.319Z,100.28
2022-10-22T18:54:35.485Z,79.07
2022-10-22T18:57:03.205Z,75.13
2022-10-22T18:59:31.360Z,71.55
2022-10-22T19:02:00.021Z,87.18
2022-10-22T19:04:33.221Z,73.35
2022-10-22T19:07:00.520Z,70.40
2022-10-22T19:09:27.904Z,75.57
2022-10-22T19:11:55.056Z,70.43
2022-10-22T19:14:22.702Z,96.93
2022-10-22T19:16:53.231Z,80.78
2022-10-22T19:19:22.087Z,81.93
2022-10-22T19:21:51.837Z,77.50
2022-10-22T19:24:20.582Z,75.80
2022-10-22T19:26:48.219Z,64.32
2022-10-22T19:29:17.475Z,56.33
2022-10-22T19:31:45.335Z,58.13
2022-10-22T19:34:13.486Z,59.65
2022-10-22T19:36:41.070Z,62.38
2022-10-22T19:39:09.052Z,68.68
2022-10-22T19:41:36.531Z,67.28
2022-10-22T19:44:04.146Z,63.75
2022-10-22T19:46:34.509Z,82.28
2022-10-22T19:49:04.342Z,74.03
2022-10-22T19:51:35.570Z,101.55
2022-10-22T19:54:05.791Z,92.38
2022-10-22T19:56:34.129Z,67.00
2022-10-22T19:59:05.543Z,58.92
2022-10-22T20:01:32.881Z,76.97
2022-10-22T20:04:01.595Z,91.78
2022-10-22T20:06:29.624Z,98.63
2022-10-22T20:08:57.364Z,91.63
2022-10-22T20:11:28.021Z,70.80
2022-10-22T20:13:56.787Z,59.45
2022-10-22T20:16:28.743Z,68.57
2022-10-22T20:19:00.879Z,58.80
2022-10-22T20:21:28.559Z,64.57
2022-10-22T20:23:57.458Z,75.38
2022-10-22T20:26:27.999Z,70.50
2022-10-22T20:28:56.771Z,76.38
2022-10-22T20:31:26.645Z,60.40
2022-10-22T20:33:59.698Z,55.20
2022-10-22T20:36:28.134Z,130.77
2022-10-22T20:39:00.747Z,199.98
2022-10-22T20:41:29.521Z,94.18
2022-10-22T20:43:57.296Z,81.65
2022-10-22T20:46:27.374Z,87.57
2022-10-22T20:48:59.627Z,94.45
2022-10-22T20:51:26.742Z,109.38
2022-10-22T20:53:54.076Z,100.38
2022-10-22T20:56:21.455Z,95.32
2022-10-22T20:58:50.607Z,81.10
2022-10-22T21:01:22.175Z,96.75
2022-10-22T21:03:53.120Z,106.00
2022-10-22T21:06:23.083Z,94.68
2022-10-22T21:08:51.461Z,90.95
2022-10-22T21:11:19.405Z,91.97
2022-10-22T21:13:46.931Z,93.88
2022-10-22T21:16:14.996Z,106.78
2022-10-22T21:18:42.411Z,96.97
2022-10-22T21:21:11.785Z,107.53
2022-10-22T21:23:39.187Z,91.55
2022-10-22T21:26:06.588Z,73.07
2022-10-22T21:28:35.790Z,95.88
2022-10-22T21:31:04.885Z,80.57
2022-10-22T21:33:35.518Z,77.15
2022-10-22T21:36:02.582Z,72.03
2022-10-22T21:38:31.162Z,70.30
2022-10-22T21:40:59.284Z,64.10
2022-10-22T21:43:26.531Z,77.22
2022-10-22T21:46:10.173Z,60.90
2022-10-22T21:48:38.715Z,60.33
2022-10-22T21:51:10.036Z,67.60
2022-10-22T21:53:37.971Z,61.97
2022-10-22T21:56:05.978Z,60.17
2022-10-22T21:58:36.525Z,57.63
2022-10-22T22:01:03.829Z,60.90
2022-10-22T22:03:31.166Z,68.25
2022-10-22T22:06:03.334Z,59.78
2022-10-22T22:08:31.411Z,63.05
2022-10-22T22:11:19.654Z,58.78
2022-10-22T22:13:48.749Z,55.67
2022-10-22T22:16:25.572Z,61.97
2022-10-22T22:19:00.508Z,57.85
2022-10-22T22:21:28.750Z,55.15
2022-10-22T22:23:57.545Z,56.15
2022-10-22T22:26:29.502Z,58.10
2022-10-22T22:29:00.348Z,69.18
2022-10-22T22:31:32.747Z,55.22
2022-10-22T22:33:59.928Z,68.15
2022-10-22T22:36:27.023Z,55.05
2022-10-22T22:38:56.243Z,58.85
2022-10-22T22:41:23.768Z,53.80
2022-10-22T22:43:51.079Z,47.65
2022-10-22T22:46:18.160Z,56.20
2022-10-22T22:48:49.445Z,51.42
2022-10-22T22:51:17.194Z,49.38
2022-10-22T22:53:44.514Z,59.15
2022-10-22T22:56:23.865Z,56.90
2022-10-22T22:58:51.453Z,53.75
2022-10-22T23:01:26.339Z,52.35
2022-10-22T23:04:02.079Z,47.88
2022-10-22T23:06:32.050Z,54.83
2022-10-22T23:08:59.733Z,57.35
2022-10-22T23:11:28.337Z,51.38
2022-10-22T23:13:59.827Z,53.30
2022-10-22T23:16:30.943Z,48.60
2022-10-22T23:18:59.580Z,53.00
2022-10-22T23:21:33.254Z,57.90
2022-10-22T23:24:02.975Z,54.33
2022-10-22T23:26:38.944Z,53.97
2022-10-22T23:29:16.812Z,50.67
2022-10-22T23:31:44.330Z,51.67
2022-10-22T23:34:14.092Z,55.70
2022-10-22T23:36:41.376Z,45.92
2022-10-22T23:39:11.140Z,51.58
2022-10-22T23:41:38.913Z,49.78
2022-10-22T23:44:06.926Z,53.20
2022-10-22T23:46:34.380Z,52.10
2022-10-22T23:49:01.890Z,50.60
2022-10-22T23:51:29.097Z,53.40
2022-10-22T23:53:59.469Z,49.30
2022-10-22T23:56:28.041Z,50.10
2022-10-22T23:58:56.180Z,49.90
